Time;durP1;ratioP1;P1;durP2;ratioP2;P2;SDS_P1;SDS_P2;PMS_P1;PMS_P2;Temp;Humidity;BMP_temperature;BMP_pressure;BME280_temperature;BME280_humidity;BME280_pressure;Samples;Min_cycle;Max_cycle;Signal;HPM_P1;HPM_P2
2021/12/25 00:01:07;;;;;;;0.40;0.30;;;11.00;99.90;;;;;;5090776;28;20452;-75
2021/12/25 00:03:33;;;;;;;0.40;0.30;;;11.10;99.90;;;;;;5090427;28;20393;-75
2021/12/25 00:05:59;;;;;;;0.40;0.20;;;11.00;99.90;;;;;;5090559;28;20402;-74
2021/12/25 00:08:28;;;;;;;0.80;0.60;;;11.10;99.90;;;;;;5089375;28;20404;-75
2021/12/25 00:10:55;;;;;;;0.40;0.25;;;11.30;99.90;;;;;;5089736;28;20378;-74
2021/12/25 00:13:21;;;;;;;0.40;0.20;;;11.20;99.90;;;;;;5089652;28;20392;-76
2021/12/25 00:15:48;;;;;;;0.40;0.20;;;11.10;99.90;;;;;;5110592;28;20373;-75
2021/12/25 00:18:14;;;;;;;2.20;0.50;;;11.20;99.90;;;;;;5110355;28;20384;-74
2021/12/25 00:20:40;;;;;;;0.40;0.20;;;11.10;99.90;;;;;;5109584;28;20505;-74
2021/12/25 00:23:07;;;;;;;0.40;0.20;;;11.00;99.90;;;;;;5109972;28;20449;-74
2021/12/25 00:25:39;;;;;;;0.40;0.20;;;11.00;99.90;;;;;;5091168;28;20732;-75
2021/12/25 00:30:59;;;;;;;0.40;0.20;;;11.00;99.90;;;;;;5089534;28;20466;-74
2021/12/25 00:36:18;;;;;;;0.40;0.20;;;10.90;99.90;;;;;;5110675;28;20395;-74
2021/12/25 00:38:46;;;;;;;0.40;0.30;;;10.90;99.90;;;;;;5108964;28;20372;-73
2021/12/25 00:41:13;;;;;;;0.40;0.20;;;11.20;99.90;;;;;;5075020;28;20451;-73
2021/12/25 00:43:39;;;;;;;0.40;0.30;;;11.00;99.90;;;;;;5109146;28;20387;-73
2021/12/25 00:46:05;;;;;;;0.40;0.20;;;10.90;99.90;;;;;;5110674;28;20851;-72
2021/12/25 00:48:31;;;;;;;0.40;0.20;;;10.90;99.90;;;;;;5110318;28;20376;-73
2021/12/25 00:50:56;;;;;;;0.40;0.30;;;10.90;99.90;;;;;;5092448;28;20399;-72
2021/12/25 00:53:22;;;;;;;0.40;0.20;;;10.90;99.90;;;;;;5095764;28;20480;-72
2021/12/25 00:55:48;;;;;;;0.43;0.32;;;11.00;99.90;;;;;;5113489;28;20387;-73
2021/12/25 00:58:14;;;;;;;0.40;0.30;;;11.10;99.90;;;;;;5113975;28;20470;-72
2021/12/25 01:00:40;;;;;;;0.40;0.20;;;11.10;99.90;;;;;;5114060;28;20756;-72
2021/12/25 01:03:06;;;;;;;0.40;0.30;;;11.10;99.90;;;;;;5113305;28;20376;-72
2021/12/25 01:05:32;;;;;;;0.40;0.20;;;11.10;99.90;;;;;;5114148;28;20540;-72
2021/12/25 01:07:59;;;;;;;0.40;0.20;;;11.10;99.90;;;;;;5113136;28;20407;-73
2021/12/25 01:10:25;;;;;;;0.40;0.30;;;11.00;99.90;;;;;;5117531;27;20383;-72
2021/12/25 01:18:57;;;;;;;0.40;0.20;;;11.40;99.90;;;;;;5080874;28;20384;-72
2021/12/25 01:34:52;;;;;;;0.40;0.30;;;11.40;99.90;;;;;;5060189;28;20418;-72
2021/12/25 01:37:39;;;;;;;0.40;0.30;;;11.50;99.90;;;;;;5092393;28;20572;-72
2021/12/25 01:48:23;;;;;;;0.40;0.30;;;11.80;99.90;;;;;;5117614;27;20475;-73
2021/12/25 01:50:49;;;;;;;0.40;0.30;;;11.80;99.90;;;;;;5096041;28;20886;-73
2021/12/25 01:53:15;;;;;;;0.40;0.30;;;11.80;99.90;;;;;;5077406;28;20389;-73
2021/12/25 01:55:40;;;;;;;0.40;0.30;;;11.80;99.90;;;;;;5092046;28;21040;-72
2021/12/25 01:58:06;;;;;;;0.40;0.30;;;11.70;99.90;;;;;;5092743;28;20386;-73
2021/12/25 02:00:32;;;;;;;0.40;0.20;;;11.70;99.90;;;;;;5091570;28;20760;-72
2021/12/25 02:02:58;;;;;;;0.40;0.30;;;11.80;99.90;;;;;;5092422;28;20405;-73
2021/12/25 02:05:24;;;;;;;0.40;0.30;;;11.70;99.90;;;;;;5092811;28;20385;-73
2021/12/25 02:07:50;;;;;;;0.40;0.20;;;11.70;99.90;;;;;;5091522;28;20454;-73
2021/12/25 02:10:17;;;;;;;0.40;0.20;;;11.70;99.90;;;;;;5074399;28;20748;-73
2021/12/25 02:12:43;;;;;;;0.40;0.30;;;11.70;99.90;;;;;;5095341;28;20379;-73
2021/12/25 02:15:15;;;;;;;0.40;0.20;;;11.80;99.90;;;;;;5094586;28;20434;-73
2021/12/25 02:20:22;;;;;;;0.40;0.20;;;11.80;99.90;;;;;;5112674;28;20376;-72
2021/12/25 02:22:49;;;;;;;0.40;0.30;;;11.70;99.90;;;;;;5093702;28;20479;-73
2021/12/25 02:25:15;;;;;;;0.40;0.30;;;11.70;99.90;;;;;;5112854;28;20734;-72
2021/12/25 02:27:44;;;;;;;0.40;0.30;;;11.70;99.90;;;;;;5112295;28;20388;-74
2021/12/25 02:30:10;;;;;;;0.40;0.30;;;11.70;99.90;;;;;;5112500;28;20371;-72
2021/12/25 02:32:36;;;;;;;0.40;0.20;;;11.70;99.90;;;;;;5112975;28;20377;-72
2021/12/25 02:35:02;;;;;;;0.40;0.30;;;11.60;99.90;;;;;;5112402;28;20850;-72
2021/12/25 02:37:28;;;;;;;0.40;0.20;;;11.60;99.90;;;;;;5118819;27;20396;-73
2021/12/25 02:39:53;;;;;;;1.30;0.80;;;11.60;99.90;;;;;;5113512;27;20474;-73
2021/12/25 02:42:20;;;;;;;0.80;0.40;;;11.60;99.90;;;;;;5132574;27;20849;-72
2021/12/25 02:44:46;;;;;;;0.60;0.60;;;11.50;99.90;;;;;;5114499;27;20456;-73
2021/12/25 02:47:19;;;;;;;0.40;0.20;;;11.50;99.90;;;;;;5131415;27;20708;-73
2021/12/25 02:49:52;;;;;;;0.40;0.20;;;11.50;99.90;;;;;;5101528;27;20733;-73
2021/12/25 02:52:18;;;;;;;0.60;0.60;;;11.50;99.90;;;;;;5111820;27;20994;-73
2021/12/25 02:54:44;;;;;;;0.40;0.30;;;11.40;99.90;;;;;;5110085;27;20392;-72
2021/12/25 02:57:14;;;;;;;0.40;0.20;;;11.40;99.90;;;;;;5109157;28;20413;-73
2021/12/25 02:59:39;;;;;;;0.40;0.30;;;11.50;99.90;;;;;;5113560;27;20704;-73
2021/12/25 03:02:15;;;;;;;0.40;0.40;;;11.50;99.90;;;;;;5109942;28;20403;-74
2021/12/25 03:04:44;;;;;;;0.40;0.20;;;11.50;99.90;;;;;;5112140;27;20389;-73
2021/12/25 03:07:10;;;;;;;0.40;0.30;;;11.50;99.90;;;;;;5076807;28;20846;-73
2021/12/25 03:09:36;;;;;;;0.40;0.30;;;11.50;99.90;;;;;;5111391;28;20471;-73
2021/12/25 03:12:04;;;;;;;0.40;0.30;;;11.50;99.90;;;;;;5111747;28;20404;-73
2021/12/25 03:14:50;;;;;;;0.40;0.20;;;11.60;99.90;;;;;;5092157;28;20451;-73
2021/12/25 03:17:17;;;;;;;0.40;0.20;;;11.50;99.90;;;;;;5110855;28;20438;-73
2021/12/25 03:19:42;;;;;;;0.40;0.20;;;11.60;99.90;;;;;;5111287;28;20708;-72
2021/12/25 03:22:08;;;;;;;0.40;0.30;;;11.50;99.90;;;;;;5111503;28;20529;-73
2021/12/25 03:24:34;;;;;;;0.40;0.30;;;11.50;99.90;;;;;;5110310;28;20407;-73
2021/12/25 03:26:59;;;;;;;0.40;0.30;;;11.50;99.90;;;;;;5092950;28;20519;-73
2021/12/25 03:29:26;;;;;;;0.40;0.30;;;11.50;99.90;;;;;;5110610;28;20389;-73
2021/12/25 03:31:53;;;;;;;0.40;0.20;;;11.40;99.90;;;;;;5093136;28;20858;-73
2021/12/25 03:34:19;;;;;;;0.40;0.20;;;11.50;99.90;;;;;;5111197;28;20388;-73
2021/12/25 03:36:45;;;;;;;0.50;0.40;;;11.50;99.90;;;;;;5111055;28;20389;-74
2021/12/25 03:39:13;;;;;;;0.40;0.20;;;11.50;99.90;;;;;;5092728;28;20377;-73
2021/12/25 03:41:39;;;;;;;0.40;0.20;;;11.50;99.90;;;;;;5110237;28;20418;-72
2021/12/25 03:44:05;;;;;;;0.40;0.20;;;11.40;99.90;;;;;;5110857;28;20380;-71
2021/12/25 03:46:31;;;;;;;0.40;0.30;;;11.40;99.90;;;;;;5110159;28;20384;-74
2021/12/25 04:00:03;;;;;;;0.40;0.20;;;11.40;99.90;;;;;;5110429;28;20376;-73
2021/12/25 04:02:35;;;;;;;1.70;0.80;;;11.40;99.90;;;;;;5092662;28;20762;-73
2021/12/25 04:05:04;;;;;;;0.40;0.30;;;11.40;99.90;;;;;;5109928;28;20380;-74
2021/12/25 04:10:00;;;;;;;0.40;0.20;;;11.40;99.90;;;;;;5109912;28;20427;-72
2021/12/25 04:12:26;;;;;;;0.40;0.20;;;11.30;99.90;;;;;;5110987;28;20403;-72
2021/12/25 04:14:51;;;;;;;0.40;0.27;;;11.40;99.90;;;;;;5109645;28;20935;-73
2021/12/25 04:17:17;;;;;;;0.40;0.20;;;11.30;99.90;;;;;;5110380;28;20376;-73
2021/12/25 04:19:43;;;;;;;0.40;0.30;;;11.30;99.90;;;;;;5110444;28;20380;-74
2021/12/25 04:22:16;;;;;;;0.40;0.20;;;11.30;99.90;;;;;;5109804;28;20399;-74
2021/12/25 04:24:44;;;;;;;0.40;0.20;;;11.30;99.90;;;;;;5093279;28;20407;-74
2021/12/25 04:27:13;;;;;;;0.40;0.30;;;11.40;99.90;;;;;;5095723;28;20392;-72
2021/12/25 04:29:48;;;;;;;0.40;0.20;;;11.30;99.90;;;;;;5114827;28;20415;-73
2021/12/25 05:04:17;;;;;;;0.40;0.20;;;11.30;99.90;;;;;;5114726;28;20376;-74
2021/12/25 05:06:43;;;;;;;0.40;0.30;;;11.30;99.90;;;;;;5114757;28;20433;-73
2021/12/25 05:09:08;;;;;;;0.40;0.20;;;11.30;99.90;;;;;;5114424;28;20913;-74
2021/12/25 05:11:34;;;;;;;0.40;0.20;;;11.30;99.90;;;;;;5095454;28;20430;-74
2021/12/25 05:14:00;;;;;;;0.40;0.30;;;11.30;99.90;;;;;;5114390;28;20742;-73
2021/12/25 05:16:26;;;;;;;0.50;0.50;;;11.30;99.90;;;;;;5113581;28;20372;-74
2021/12/25 05:18:52;;;;;;;0.50;0.50;;;11.30;99.90;;;;;;5114320;28;20380;-73
2021/12/25 05:21:19;;;;;;;0.40;0.20;;;11.30;99.90;;;;;;5114285;28;20564;-73
2021/12/25 05:23:44;;;;;;;0.40;0.20;;;11.30;99.90;;;;;;5113549;28;20591;-74
2021/12/25 05:26:10;;;;;;;0.40;0.40;;;11.40;99.90;;;;;;5114400;28;20919;-74
2021/12/25 05:28:42;;;;;;;0.40;0.33;;;11.30;99.90;;;;;;5112958;28;20461;-72
2021/12/25 05:31:09;;;;;;;0.40;0.20;;;11.20;99.90;;;;;;5095883;28;20384;-72
2021/12/25 05:33:35;;;;;;;0.40;0.20;;;11.30;99.90;;;;;;5103941;28;20397;-73
2021/12/25 05:36:02;;;;;;;0.40;0.20;;;11.40;99.90;;;;;;5092824;28;20826;-72
2021/12/25 05:38:27;;;;;;;0.50;0.40;;;11.50;99.90;;;;;;5093527;28;20465;-72
2021/12/25 05:40:53;;;;;;;0.40;0.40;;;11.50;99.90;;;;;;5092382;28;20895;-71
2021/12/25 05:43:19;;;;;;;0.40;0.30;;;11.40;99.90;;;;;;5093430;28;20375;-71
2021/12/25 05:45:45;;;;;;;1.00;0.90;;;11.30;99.90;;;;;;5092523;28;20419;-72
2021/12/25 05:48:12;;;;;;;0.40;0.20;;;11.30;99.90;;;;;;5075277;28;20420;-71
2021/12/25 05:50:38;;;;;;;0.40;0.28;;;11.30;99.90;;;;;;5093416;28;20386;-71
2021/12/25 05:53:05;;;;;;;0.40;0.30;;;11.30;99.90;;;;;;5093009;28;20887;-71
2021/12/25 05:55:31;;;;;;;0.40;0.22;;;11.30;99.90;;;;;;5093471;28;20443;-71
2021/12/25 05:57:57;;;;;;;0.40;0.20;;;11.30;99.90;;;;;;5092791;28;20397;-72
2021/12/25 06:00:23;;;;;;;0.40;0.20;;;11.20;99.90;;;;;;5092869;28;20421;-72
2021/12/25 06:02:50;;;;;;;0.40;0.30;;;11.30;99.90;;;;;;5092539;28;20381;-73
2021/12/25 06:05:16;;;;;;;0.40;0.20;;;11.30;99.90;;;;;;5093190;28;20414;-72
2021/12/25 06:07:42;;;;;;;0.40;0.20;;;11.20;99.90;;;;;;5074970;28;20374;-71
2021/12/25 06:10:10;;;;;;;2.10;0.70;;;11.20;99.90;;;;;;5092117;28;20412;-71
2021/12/25 06:12:41;;;;;;;0.40;0.30;;;11.30;99.90;;;;;;5092945;28;20383;-72
2021/12/25 06:15:09;;;;;;;0.40;0.30;;;11.20;99.90;;;;;;5074131;28;20385;-72
2021/12/25 06:17:36;;;;;;;0.40;0.20;;;11.20;99.90;;;;;;5092737;28;20465;-71
2021/12/25 06:20:02;;;;;;;0.40;0.30;;;11.20;99.90;;;;;;5092341;28;20378;-72
2021/12/25 06:22:28;;;;;;;0.40;0.20;;;11.20;99.90;;;;;;5092639;28;20410;-71
2021/12/25 06:24:53;;;;;;;0.40;0.30;;;11.20;99.90;;;;;;5074324;28;20393;-72
2021/12/25 06:27:21;;;;;;;0.40;0.20;;;11.20;99.90;;;;;;5091814;28;20686;-72
2021/12/25 06:29:48;;;;;;;0.40;0.30;;;11.20;99.90;;;;;;5092590;28;20488;-72
2021/12/25 06:32:14;;;;;;;0.40;0.20;;;11.10;99.90;;;;;;5091743;28;20378;-72
2021/12/25 06:34:40;;;;;;;0.50;0.50;;;11.10;99.90;;;;;;5110775;28;20931;-72
2021/12/25 06:37:06;;;;;;;0.40;0.30;;;11.20;99.90;;;;;;5112826;28;20412;-72
2021/12/25 06:39:32;;;;;;;0.60;0.50;;;11.10;99.90;;;;;;5112154;28;20842;-72
2021/12/25 06:41:58;;;;;;;0.40;0.30;;;11.10;99.90;;;;;;5112814;28;20793;-72
2021/12/25 06:44:25;;;;;;;0.80;0.80;;;11.10;99.90;;;;;;5111972;28;20488;-72
2021/12/25 06:47:00;;;;;;;0.40;0.20;;;11.20;99.90;;;;;;5112609;28;20380;-72
2021/12/25 06:49:27;;;;;;;0.40;0.30;;;11.20;99.90;;;;;;5111957;28;20396;-73
2021/12/25 06:51:53;;;;;;;0.40;0.30;;;11.10;99.90;;;;;;5094288;28;20388;-72
2021/12/25 06:54:19;;;;;;;0.40;0.30;;;11.20;99.90;;;;;;5112473;28;20424;-73
2021/12/25 06:56:46;;;;;;;0.40;0.20;;;11.10;99.90;;;;;;5111885;28;20376;-72
2021/12/25 06:59:13;;;;;;;0.40;0.30;;;11.20;99.90;;;;;;5112314;28;20833;-72
2021/12/25 07:01:39;;;;;;;0.40;0.30;;;11.20;99.90;;;;;;5093264;28;20860;-73
2021/12/25 07:04:09;;;;;;;0.40;0.20;;;11.20;99.90;;;;;;5112483;28;20372;-72
2021/12/25 07:06:36;;;;;;;0.40;0.20;;;11.20;99.90;;;;;;5111593;28;20536;-72
2021/12/25 07:09:05;;;;;;;0.40;0.40;;;11.10;99.90;;;;;;5112051;28;20896;-72
2021/12/25 07:11:31;;;;;;;0.40;0.30;;;11.10;99.90;;;;;;5111973;28;20954;-72
2021/12/25 07:14:00;;;;;;;0.40;0.20;;;11.20;99.90;;;;;;5111397;28;20527;-72
2021/12/25 07:16:26;;;;;;;0.40;0.30;;;11.20;99.90;;;;;;5112070;28;20376;-72
2021/12/25 07:18:51;;;;;;;0.40;0.20;;;11.20;99.90;;;;;;5111294;28;20877;-72
2021/12/25 07:21:17;;;;;;;0.40;0.28;;;11.20;99.90;;;;;;5111498;28;20410;-72
2021/12/25 07:23:43;;;;;;;0.40;0.20;;;11.20;99.90;;;;;;5111745;28;20388;-73
2021/12/25 07:26:09;;;;;;;0.40;0.40;;;11.20;99.90;;;;;;5111598;28;20735;-72
2021/12/25 07:28:35;;;;;;;0.70;0.70;;;11.30;99.90;;;;;;5111844;28;20664;-72
2021/12/25 07:31:01;;;;;;;0.60;0.60;;;11.30;99.90;;;;;;5111256;28;20376;-72
2021/12/25 07:33:29;;;;;;;0.40;0.40;;;11.30;99.90;;;;;;5085101;28;20381;-72
2021/12/25 07:35:56;;;;;;;1.00;1.00;;;11.30;99.90;;;;;;5090837;28;20427;-73
2021/12/25 07:38:22;;;;;;;0.40;0.20;;;11.20;99.90;;;;;;5091023;28;20379;-72
2021/12/25 07:40:48;;;;;;;0.40;0.30;;;11.20;99.90;;;;;;5091167;28;20878;-72
2021/12/25 07:43:15;;;;;;;0.40;0.20;;;11.30;99.90;;;;;;5090265;28;20401;-72
2021/12/25 07:45:41;;;;;;;0.40;0.30;;;11.20;99.90;;;;;;5091215;28;20797;-72
2021/12/25 07:48:07;;;;;;;0.40;0.30;;;11.20;99.90;;;;;;5090128;28;20370;-73
2021/12/25 07:50:35;;;;;;;0.50;0.40;;;11.10;99.90;;;;;;5090922;28;20386;-72
2021/12/25 07:53:01;;;;;;;0.40;0.40;;;11.10;99.90;;;;;;5072987;28;20791;-73
2021/12/25 07:55:32;;;;;;;0.40;0.20;;;11.10;99.90;;;;;;5090236;28;20405;-73
2021/12/25 07:57:59;;;;;;;0.40;0.30;;;11.20;99.90;;;;;;5073068;28;20710;-72
2021/12/25 08:00:26;;;;;;;0.40;0.20;;;11.20;99.90;;;;;;5089585;28;20875;-72
2021/12/25 08:02:52;;;;;;;1.10;0.60;;;11.20;99.90;;;;;;5100272;27;20380;-73
2021/12/25 08:05:18;;;;;;;0.40;0.30;;;11.10;99.90;;;;;;5084477;28;20419;-73
2021/12/25 08:07:44;;;;;;;0.40;0.20;;;11.20;99.90;;;;;;5107496;28;20384;-72
2021/12/25 08:10:13;;;;;;;0.40;0.20;;;11.20;99.90;;;;;;5104700;28;20450;-72
2021/12/25 08:12:43;;;;;;;0.40;0.30;;;11.10;99.90;;;;;;5085711;28;20744;-72
2021/12/25 08:15:17;;;;;;;0.60;0.50;;;11.10;99.90;;;;;;5083575;28;20384;-72
2021/12/25 08:17:44;;;;;;;0.40;0.40;;;11.10;99.90;;;;;;5100371;28;20817;-73
2021/12/25 08:20:12;;;;;;;0.50;0.45;;;11.10;99.90;;;;;;5102919;28;20744;-74
2021/12/25 08:22:40;;;;;;;0.40;0.20;;;11.10;99.90;;;;;;5106466;28;20391;-73
2021/12/25 08:25:06;;;;;;;0.70;0.70;;;11.10;99.90;;;;;;5108284;28;20430;-73
2021/12/25 08:27:32;;;;;;;0.40;0.20;;;11.00;99.90;;;;;;5109655;28;20388;-73
2021/12/25 08:29:58;;;;;;;0.40;0.20;;;11.10;99.90;;;;;;5107395;28;20512;-73
2021/12/25 08:32:25;;;;;;;0.40;0.30;;;11.10;99.90;;;;;;5108876;28;21365;-72
2021/12/25 08:34:50;;;;;;;0.40;0.20;;;11.10;99.90;;;;;;5106860;28;20384;-73
2021/12/25 08:37:16;;;;;;;0.40;0.20;;;11.10;99.90;;;;;;5107808;28;20920;-72
2021/12/25 08:39:42;;;;;;;0.40;0.20;;;11.10;99.90;;;;;;5107923;28;20525;-72
2021/12/25 08:42:09;;;;;;;0.40;0.20;;;11.10;99.90;;;;;;5090454;28;20415;-73
2021/12/25 08:44:40;;;;;;;0.40;0.30;;;11.20;99.90;;;;;;5088953;28;20406;-73
2021/12/25 08:47:12;;;;;;;0.40;0.20;;;11.10;99.90;;;;;;5095082;28;20390;-73
2021/12/25 08:49:40;;;;;;;0.80;0.50;;;11.20;99.90;;;;;;5120265;28;20457;-73
2021/12/25 08:52:10;;;;;;;0.40;0.20;;;11.20;99.90;;;;;;5108273;28;20415;-73
2021/12/25 08:54:36;;;;;;;0.40;0.30;;;11.20;99.90;;;;;;5097089;28;20409;-72
2021/12/25 08:57:03;;;;;;;0.40;0.30;;;11.20;99.90;;;;;;5092361;28;20392;-73
2021/12/25 08:59:28;;;;;;;0.40;0.40;;;11.20;99.90;;;;;;5121599;28;20390;-72
2021/12/25 09:01:56;;;;;;;0.40;0.30;;;11.20;99.90;;;;;;5122456;28;20452;-72
2021/12/25 09:04:21;;;;;;;0.40;0.20;;;11.20;99.90;;;;;;5114316;28;20743;-72
2021/12/25 09:06:47;;;;;;;0.40;0.30;;;11.40;99.90;;;;;;5097832;28;20398;-72
2021/12/25 09:09:13;;;;;;;0.40;0.20;;;11.30;99.90;;;;;;5093703;28;20385;-72
2021/12/25 09:11:41;;;;;;;0.40;0.30;;;11.40;99.90;;;;;;5120732;27;20506;-72
2021/12/25 09:14:07;;;;;;;0.40;0.30;;;11.40;99.90;;;;;;5090236;27;20894;-72
2021/12/25 09:16:33;;;;;;;3.85;1.65;;;11.20;99.90;;;;;;5116849;27;20388;-72
2021/12/25 09:19:00;;;;;;;0.40;0.30;;;11.30;99.90;;;;;;5115345;27;20465;-72
2021/12/25 09:21:25;;;;;;;0.40;0.20;;;11.30;99.90;;;;;;5126296;27;20514;-73
2021/12/25 09:23:51;;;;;;;0.50;0.50;;;11.30;99.90;;;;;;5117358;27;20499;-73
2021/12/25 09:26:17;;;;;;;0.50;0.50;;;11.30;99.90;;;;;;5116713;27;20478;-73
2021/12/25 09:28:44;;;;;;;0.40;0.30;;;11.40;99.90;;;;;;5122933;27;20517;-73
2021/12/25 09:31:10;;;;;;;0.40;0.30;;;11.30;99.90;;;;;;5102963;27;20883;-72
2021/12/25 09:33:36;;;;;;;0.40;0.30;;;11.30;99.90;;;;;;5125628;27;20458;-72
2021/12/25 09:36:03;;;;;;;0.40;0.20;;;11.40;99.90;;;;;;5119391;27;20779;-73
2021/12/25 09:38:31;;;;;;;0.40;0.30;;;11.30;99.90;;;;;;5125170;27;20392;-72
2021/12/25 09:40:58;;;;;;;0.40;0.40;;;11.40;99.90;;;;;;5117474;27;20459;-72
2021/12/25 09:43:25;;;;;;;0.40;0.20;;;11.50;99.90;;;;;;5108531;27;20389;-72
2021/12/25 09:45:51;;;;;;;0.40;0.20;;;11.50;99.90;;;;;;5119777;27;20380;-72
2021/12/25 09:48:17;;;;;;;0.40;0.30;;;11.50;99.90;;;;;;5129916;27;20473;-72
2021/12/25 09:50:43;;;;;;;0.50;0.40;;;11.50;99.90;;;;;;5119543;27;20789;-72
2021/12/25 09:53:12;;;;;;;0.40;0.20;;;11.40;99.90;;;;;;5120400;27;20795;-72
2021/12/25 09:55:40;;;;;;;0.40;0.30;;;11.60;99.90;;;;;;5073966;28;20475;-72
2021/12/25 09:58:07;;;;;;;0.40;0.40;;;11.50;99.90;;;;;;5101302;28;20815;-72
2021/12/25 10:00:36;;;;;;;0.40;0.40;;;11.50;99.90;;;;;;5112352;27;20419;-72
2021/12/25 10:03:02;;;;;;;0.40;0.20;;;11.60;99.90;;;;;;5099452;27;20701;-73
2021/12/25 10:05:31;;;;;;;0.60;0.50;;;11.50;99.90;;;;;;5125482;27;20429;-73
2021/12/25 10:08:19;;;;;;;0.40;0.20;;;11.60;99.90;;;;;;5115224;27;20398;-74
2021/12/25 10:10:56;;;;;;;0.50;0.50;;;11.60;99.90;;;;;;5133478;27;20410;-72
2021/12/25 10:13:35;;;;;;;0.40;0.30;;;11.50;99.90;;;;;;5094700;27;20392;-72
2021/12/25 10:16:23;;;;;;;0.40;0.20;;;11.60;99.90;;;;;;5112315;27;20392;-72
2021/12/25 10:18:50;;;;;;;1.90;1.20;;;11.50;99.90;;;;;;5112193;27;20466;-71
2021/12/25 10:21:22;;;;;;;0.40;0.20;;;11.60;99.90;;;;;;5114640;27;20752;-72
2021/12/25 10:24:07;;;;;;;0.90;0.70;;;11.50;99.90;;;;;;5115083;27;20414;-72
2021/12/25 10:26:35;;;;;;;0.40;0.30;;;11.30;99.90;;;;;;5088151;28;20383;-74
2021/12/25 10:29:17;;;;;;;0.50;0.50;;;11.50;99.90;;;;;;5108284;27;20392;-71
2021/12/25 10:31:43;;;;;;;0.40;0.30;;;11.50;99.90;;;;;;5110855;27;20386;-71
2021/12/25 10:34:15;;;;;;;0.40;0.30;;;11.60;99.90;;;;;;5109846;27;20396;-72
2021/12/25 10:36:41;;;;;;;0.40;0.40;;;11.40;99.90;;;;;;5094013;28;20412;-72
2021/12/25 10:39:20;;;;;;;0.90;0.90;;;11.60;99.90;;;;;;5112630;27;20858;-72
2021/12/25 10:42:03;;;;;;;0.50;0.50;;;11.40;99.90;;;;;;5111392;27;20901;-72
2021/12/25 10:44:36;;;;;;;0.40;0.30;;;11.40;99.90;;;;;;5111866;27;20886;-72
2021/12/25 10:47:08;;;;;;;0.40;0.30;;;11.50;99.90;;;;;;5095021;27;20523;-72
2021/12/25 10:49:46;;;;;;;0.40;0.30;;;11.60;99.90;;;;;;5107297;28;20384;-73
2021/12/25 10:52:40;;;;;;;0.40;0.20;;;11.60;99.90;;;;;;5112585;27;20888;-73
2021/12/25 10:55:26;;;;;;;0.40;0.20;;;11.70;99.90;;;;;;5092009;27;20423;-72
2021/12/25 10:57:59;;;;;;;2.50;1.50;;;11.60;99.90;;;;;;5111303;27;20457;-73
2021/12/25 11:00:24;;;;;;;0.40;0.30;;;11.70;99.90;;;;;;5113344;27;20459;-73
2021/12/25 11:02:50;;;;;;;0.60;0.60;;;11.80;99.90;;;;;;5108578;27;20479;-72
2021/12/25 11:05:20;;;;;;;0.40;0.30;;;11.80;99.90;;;;;;5106739;27;20441;-72
2021/12/25 11:08:07;;;;;;;2.27;0.60;;;11.70;99.90;;;;;;5112712;28;20421;-73
2021/12/25 11:11:00;;;;;;;0.90;0.60;;;11.50;99.90;;;;;;5111713;27;20386;-73
2021/12/25 11:13:36;;;;;;;0.40;0.30;;;11.60;99.90;;;;;;5118635;27;20408;-73
2021/12/25 11:16:27;;;;;;;0.40;0.30;;;11.30;99.90;;;;;;5122230;27;20387;-73
2021/12/25 11:19:10;;;;;;;0.40;0.30;;;11.30;99.90;;;;;;5113167;27;20426;-73
2021/12/25 11:21:43;;;;;;;0.40;0.20;;;11.40;99.90;;;;;;5113950;27;20399;-73
2021/12/25 11:24:18;;;;;;;0.90;0.80;;;11.10;99.90;;;;;;5131486;27;20395;-74
2021/12/25 11:26:46;;;;;;;0.40;0.30;;;11.30;99.90;;;;;;5132435;27;20389;-72
2021/12/25 11:29:14;;;;;;;1.30;1.20;;;11.20;99.90;;;;;;5131035;27;20398;-72
2021/12/25 11:31:41;;;;;;;0.47;0.47;;;11.20;99.90;;;;;;5132296;27;20374;-72
2021/12/25 11:34:07;;;;;;;0.40;0.30;;;11.10;99.90;;;;;;5116610;27;20412;-72
2021/12/25 11:36:41;;;;;;;0.47;0.43;;;11.30;99.90;;;;;;5111548;28;20383;-72
2021/12/25 11:39:07;;;;;;;0.60;0.60;;;11.40;99.90;;;;;;5110600;28;20373;-72
2021/12/25 11:41:34;;;;;;;0.40;0.30;;;11.60;99.90;;;;;;5093196;28;20955;-72
2021/12/25 11:44:05;;;;;;;0.40;0.40;;;11.50;99.90;;;;;;5111613;28;20433;-72
2021/12/25 11:46:39;;;;;;;0.40;0.30;;;11.50;99.90;;;;;;5111004;28;20387;-73
2021/12/25 11:49:11;;;;;;;0.40;0.30;;;11.50;99.90;;;;;;5111551;28;20392;-73
2021/12/25 11:51:40;;;;;;;0.40;0.25;;;11.40;99.90;;;;;;5111063;28;20451;-73
2021/12/25 11:55:10;;;;;;;0.40;0.40;;;11.40;99.90;;;;;;5093065;28;20754;-73
2021/12/25 11:57:35;;;;;;;0.40;0.30;;;11.30;99.90;;;;;;5110192;28;20393;-73
2021/12/25 11:59:58;;;;;;;0.40;0.20;;;11.40;99.90;;;;;;5110906;28;20416;-73
2021/12/25 12:02:42;;;;;;;0.40;0.30;;;11.50;99.90;;;;;;5092610;28;20418;-73
2021/12/25 12:05:22;;;;;;;1.00;0.90;;;11.20;99.90;;;;;;5092840;28;20471;-73
2021/12/25 12:08:08;;;;;;;0.82;0.82;;;11.20;99.90;;;;;;5111226;28;20377;-73
2021/12/25 12:10:46;;;;;;;7.43;1.75;;;11.10;99.90;;;;;;5110295;28;20385;-73
2021/12/25 12:13:24;;;;;;;0.40;0.40;;;11.10;99.90;;;;;;5092903;28;20803;-73
2021/12/25 12:15:56;;;;;;;0.40;0.20;;;11.20;99.90;;;;;;5110704;28;21013;-73
2021/12/25 12:18:25;;;;;;;0.40;0.30;;;11.20;99.90;;;;;;5110929;28;20388;-72
2021/12/25 12:20:56;;;;;;;0.40;0.20;;;11.30;99.90;;;;;;5110277;28;20894;-72
2021/12/25 12:24:23;;;;;;;0.40;0.20;;;11.10;99.90;;;;;;5111115;28;20380;-72
2021/12/25 12:26:53;;;;;;;0.40;0.20;;;11.20;99.90;;;;;;5102210;28;20404;-73
2021/12/25 12:29:37;;;;;;;0.40;0.20;;;11.30;99.90;;;;;;5046002;28;20835;-73
2021/12/25 12:32:03;;;;;;;0.40;0.30;;;11.20;99.90;;;;;;5085356;28;20393;-73
2021/12/25 12:34:29;;;;;;;0.50;0.47;;;11.10;99.90;;;;;;5073852;28;20399;-73
2021/12/25 12:37:28;;;;;;;0.40;0.40;;;11.20;99.90;;;;;;5069436;28;20788;-72
2021/12/25 12:39:54;;;;;;;0.40;0.30;;;11.30;99.90;;;;;;5025260;28;20410;-72
2021/12/25 12:42:48;;;;;;;0.40;0.30;;;11.30;99.90;;;;;;5070201;28;20412;-73
2021/12/25 12:45:25;;;;;;;0.40;0.30;;;11.50;99.90;;;;;;5061927;28;20391;-72
2021/12/25 12:48:14;;;;;;;0.40;0.30;;;11.60;99.90;;;;;;5056008;28;20383;-73
2021/12/25 12:50:46;;;;;;;0.40;0.20;;;11.40;99.90;;;;;;5092482;28;20713;-72
2021/12/25 12:53:11;;;;;;;0.40;0.30;;;11.30;99.90;;;;;;5093659;28;21155;-72
2021/12/25 12:55:40;;;;;;;0.40;0.20;;;11.30;99.90;;;;;;5087699;28;20397;-74
2021/12/25 12:58:21;;;;;;;0.40;0.40;;;11.20;99.90;;;;;;5076207;28;20385;-74
2021/12/25 13:00:55;;;;;;;0.40;0.20;;;11.20;99.90;;;;;;5088913;28;20506;-73
2021/12/25 13:03:22;;;;;;;1.20;1.00;;;11.20;99.90;;;;;;5088386;28;20459;-73
2021/12/25 13:05:54;;;;;;;1.60;1.20;;;11.20;99.90;;;;;;5090888;28;20392;-73
2021/12/25 13:08:29;;;;;;;0.40;0.20;;;11.20;99.90;;;;;;5094168;28;20496;-72
2021/12/25 13:11:04;;;;;;;1.80;0.80;;;11.20;99.90;;;;;;5066367;28;20396;-72
2021/12/25 13:13:39;;;;;;;0.40;0.30;;;11.20;99.90;;;;;;5082639;28;20858;-72
2021/12/25 13:16:08;;;;;;;0.40;0.30;;;11.20;99.90;;;;;;5083950;28;20382;-71
2021/12/25 13:18:40;;;;;;;0.40;0.30;;;11.20;99.90;;;;;;5081745;28;20374;-72
2021/12/25 13:21:20;;;;;;;0.40;0.30;;;11.20;99.90;;;;;;5082466;28;20888;-72
2021/12/25 13:23:53;;;;;;;0.40;0.30;;;11.10;99.90;;;;;;5081043;28;20869;-72
2021/12/25 13:26:33;;;;;;;0.40;0.30;;;11.20;99.90;;;;;;5078706;28;20377;-73
2021/12/25 13:29:00;;;;;;;0.40;0.30;;;11.20;99.90;;;;;;5091596;28;20396;-72
2021/12/25 13:31:28;;;;;;;1.40;1.30;;;11.30;99.90;;;;;;5105123;28;20382;-72
2021/12/25 13:34:07;;;;;;;0.40;0.40;;;11.30;99.90;;;;;;5102002;28;20874;-72
2021/12/25 13:36:35;;;;;;;0.40;0.20;;;11.30;99.90;;;;;;5105189;28;20391;-72
2021/12/25 13:39:04;;;;;;;0.40;0.30;;;11.30;99.90;;;;;;5106254;28;20465;-72
2021/12/25 13:41:49;;;;;;;0.40;0.30;;;11.30;99.90;;;;;;5101658;28;20760;-72
2021/12/25 13:44:33;;;;;;;0.40;0.30;;;11.20;99.90;;;;;;5101211;28;20419;-72
2021/12/25 13:47:11;;;;;;;0.40;0.30;;;11.20;99.90;;;;;;5082908;28;20414;-72
2021/12/25 13:49:39;;;;;;;0.40;0.30;;;11.20;99.90;;;;;;5102288;28;20867;-72
2021/12/25 13:52:10;;;;;;;0.40;0.30;;;11.20;99.90;;;;;;5100677;28;20411;-72
2021/12/25 13:54:40;;;;;;;0.40;0.30;;;11.20;99.90;;;;;;5099999;28;20539;-72
2021/12/25 13:57:06;;;;;;;0.40;0.30;;;11.20;99.90;;;;;;5102171;28;20521;-71
2021/12/25 13:59:32;;;;;;;0.40;0.40;;;11.30;99.90;;;;;;5102659;28;20500;-71
2021/12/25 14:02:13;;;;;;;0.50;0.50;;;11.20;99.90;;;;;;5103789;28;20419;-72
2021/12/25 14:04:42;;;;;;;6.93;0.73;;;11.20;99.90;;;;;;5105100;28;20897;-72
2021/12/25 14:07:09;;;;;;;0.40;0.30;;;11.20;99.90;;;;;;5104425;28;20385;-72
2021/12/25 14:09:35;;;;;;;0.40;0.30;;;11.10;99.90;;;;;;5103782;28;20387;-72
2021/12/25 14:12:02;;;;;;;0.40;0.30;;;11.00;99.90;;;;;;5105311;28;21035;-72
2021/12/25 14:14:30;;;;;;;0.60;0.55;;;11.20;99.90;;;;;;5103794;28;20403;-72
2021/12/25 14:16:57;;;;;;;0.40;0.20;;;11.20;99.90;;;;;;5085189;28;20393;-72
2021/12/25 14:19:29;;;;;;;1.70;1.00;;;11.10;99.90;;;;;;5100258;28;20374;-72
2021/12/25 14:22:01;;;;;;;0.90;0.70;;;11.10;99.90;;;;;;5082105;28;20438;-72